Paisley, United Kingdom
Current Conditions -  °F | °C
As of 3:50 PM on Tuesday 21 Oct 2014 (Local Time) from EGPF Reporting Station
Scattered Clouds Scattered Clouds  
Wind Chill: 40°   Ceiling: Unl
Heat Index: 48°   Visibility: 6mi
Dew Point: 32°   Wind: 24mph
Humidity: 54%   Direction: 300°WNW
Pressure: 29.68"   Gusts: 36mph
Location:  55.85°N, 4.42°W
Report Text: EGPF 211450Z AUTO 30021G31KT 9999 SCT040/// //////TCU 09/M00 Q1005
Loading
Personal Weather Stations






























Interactive Weather Map
Tropical Storm Tracking
New forecast layout! Learn more

10-Day Weather Forecast

Advertisements
Track Severe Weather on mobile